Time;durP1;ratioP1;P1;durP2;ratioP2;P2;SDS_P1;SDS_P2;PMS_P1;PMS_P2;Temp;Humidity;BMP_temperature;BMP_pressure;BME280_temperature;BME280_humidity;BME280_pressure;Samples;Min_cycle;Max_cycle;Signal;HPM_P1;HPM_P2
2023/11/04 00:01:20;;;;;;;3.23;2.37;;;;;;;6.84;100.00;94218.59;5039553;28;20201;-71
2023/11/04 00:03:48;;;;;;;6.03;2.63;;;;;;;6.86;100.00;94221.81;5037715;28;20216;-71
2023/11/04 00:06:14;;;;;;;4.17;2.23;;;;;;;6.67;100.00;94220.03;5038681;28;20244;-71
2023/11/04 00:08:41;;;;;;;4.53;2.60;;;;;;;6.54;100.00;94222.63;5037984;28;20197;-71
2023/11/04 00:11:07;;;;;;;6.17;3.03;;;;;;;6.63;100.00;94220.63;5038707;28;20212;-71
2023/11/04 00:13:35;;;;;;;4.77;2.73;;;;;;;6.63;100.00;94215.38;5037440;28;20246;-71
2023/11/04 00:16:06;;;;;;;4.07;2.20;;;;;;;6.48;100.00;94222.63;5038422;28;20272;-71
2023/11/04 00:18:32;;;;;;;3.43;2.00;;;;;;;6.44;100.00;94231.88;5038182;28;21022;-71
2023/11/04 00:21:00;;;;;;;3.77;2.00;;;;;;;6.55;100.00;94219.00;5037472;28;20671;-71
2023/11/04 00:23:26;;;;;;;4.30;2.40;;;;;;;6.45;100.00;94218.59;5038189;28;20205;-71
2023/11/04 00:25:53;;;;;;;4.33;2.43;;;;;;;6.52;100.00;94226.44;5038043;28;20575;-71
2023/11/04 00:28:20;;;;;;;3.80;2.20;;;;;;;6.54;100.00;94222.63;5037998;28;20213;-71
2023/11/04 00:30:47;;;;;;;7.37;2.20;;;;;;;6.58;100.00;94226.47;5038225;28;20233;-71
2023/11/04 00:33:14;;;;;;;4.80;2.77;;;;;;;6.49;100.00;94227.69;5037963;28;20209;-71
2023/11/04 00:35:40;;;;;;;3.37;2.10;;;;;;;6.56;100.00;94231.09;5037379;28;20241;-71
2023/11/04 00:38:08;;;;;;;4.50;2.10;;;;;;;6.62;100.00;94217.22;5037676;28;20229;-71
2023/11/04 00:40:35;;;;;;;3.27;2.43;;;;;;;6.55;100.00;94226.06;5037981;28;20217;-71
2023/11/04 00:43:02;;;;;;;3.30;2.20;;;;;;;6.50;100.00;94225.84;5037123;28;20204;-71
2023/11/04 00:45:29;;;;;;;6.00;2.40;;;;;;;6.44;100.00;94224.84;5037448;28;20707;-71
2023/11/04 00:47:55;;;;;;;6.37;2.40;;;;;;;6.52;100.00;94227.28;5037266;28;21060;-71
2023/11/04 00:50:22;;;;;;;5.43;2.27;;;;;;;6.48;100.00;94233.91;5037698;28;20205;-71
2023/11/04 00:52:48;;;;;;;4.97;2.00;;;;;;;6.28;100.00;94230.47;5037512;28;20201;-71
2023/11/04 00:55:17;;;;;;;3.83;1.80;;;;;;;6.52;100.00;94226.44;5037731;28;20225;-71
2023/11/04 00:57:43;;;;;;;4.50;2.30;;;;;;;6.42;100.00;94233.91;5037909;28;20236;-71
2023/11/04 01:00:11;;;;;;;3.53;2.13;;;;;;;6.40;100.00;94234.13;5037150;28;20220;-71
2023/11/04 01:02:37;;;;;;;3.07;1.80;;;;;;;6.40;100.00;94236.72;5036886;28;20213;-71
2023/11/04 01:05:05;;;;;;;4.50;2.40;;;;;;;6.37;100.00;94231.88;5035986;28;20201;-71
2023/11/04 01:07:31;;;;;;;3.53;1.87;;;;;;;6.40;100.00;94238.53;5037245;28;20209;-71
2023/11/04 01:09:58;;;;;;;3.90;1.90;;;;;;;6.36;100.00;94229.47;5037038;28;20198;-71
2023/11/04 01:12:26;;;;;;;2.70;1.90;;;;;;;6.52;100.00;94244.75;5037255;28;20228;-71
2023/11/04 01:14:52;;;;;;;2.40;1.50;;;;;;;6.20;100.00;94251.56;5036518;28;20209;-71
2023/11/04 01:17:19;;;;;;;5.07;2.13;;;;;;;6.30;100.00;94253.78;5037105;28;20205;-71
2023/11/04 01:19:45;;;;;;;3.43;1.90;;;;;;;6.46;100.00;94249.00;5037090;28;20239;-71
2023/11/04 01:22:12;;;;;;;2.97;1.67;;;;;;;6.25;100.00;94253.56;5036534;28;20624;-71
2023/11/04 01:24:38;;;;;;;3.43;2.23;;;;;;;6.36;100.00;94256.41;5037172;28;20212;-71
2023/11/04 01:27:08;;;;;;;2.83;2.03;;;;;;;6.36;100.00;94256.41;5037022;28;20217;-71
2023/11/04 01:29:36;;;;;;;5.50;2.60;;;;;;;6.61;100.00;94254.84;5036859;28;20217;-71
2023/11/04 01:32:03;;;;;;;3.03;2.00;;;;;;;6.63;100.00;94239.72;5036193;28;20220;-71
2023/11/04 01:34:29;;;;;;;2.87;1.90;;;;;;;6.65;100.00;94244.78;5037485;28;20300;-71
2023/11/04 01:36:56;;;;;;;2.67;2.00;;;;;;;6.75;100.00;94238.13;5036884;28;20229;-71
2023/11/04 01:39:22;;;;;;;4.93;2.30;;;;;;;6.78;100.00;94241.16;5036510;28;20570;-71
2023/11/04 01:41:49;;;;;;;5.53;2.03;;;;;;;6.69;100.00;94244.16;5036615;28;20201;-71
2023/11/04 01:44:15;;;;;;;3.50;1.93;;;;;;;6.67;100.00;94241.75;5036917;28;20197;-71
2023/11/04 01:46:44;;;;;;;3.03;1.70;;;;;;;6.82;100.00;94241.53;5036185;28;20731;-71
2023/11/04 01:49:11;;;;;;;2.80;1.80;;;;;;;6.70;100.00;94241.34;5037221;28;20198;-71
2023/11/04 01:51:38;;;;;;;4.57;1.90;;;;;;;6.63;100.00;94242.34;5036426;28;20696;-71
2023/11/04 01:54:05;;;;;;;4.50;1.93;;;;;;;6.79;100.00;94236.72;5035575;28;20613;-71
2023/11/04 01:56:34;;;;;;;2.47;1.77;;;;;;;6.61;100.00;94243.59;5036335;28;20221;-71
2023/11/04 01:59:04;;;;;;;3.80;1.80;;;;;;;6.48;100.00;94254.00;5036321;28;20232;-71
2023/11/04 02:01:32;;;;;;;2.73;1.80;;;;;;;6.53;100.00;94239.34;5036232;28;20205;-71
2023/11/04 02:04:01;;;;;;;3.37;1.80;;;;;;;6.49;100.00;94250.41;5035740;28;20809;-71
2023/11/04 02:06:27;;;;;;;3.27;1.90;;;;;;;6.43;100.00;94245.97;5036045;28;20227;-71
2023/11/04 02:08:55;;;;;;;3.43;2.00;;;;;;;6.44;100.00;94243.16;5036321;28;20251;-71
2023/11/04 02:11:22;;;;;;;5.60;2.60;;;;;;;6.50;100.00;94242.34;5035742;28;20204;-71
2023/11/04 02:13:48;;;;;;;2.43;1.60;;;;;;;6.57;100.00;94248.41;5035317;28;20234;-71
2023/11/04 02:16:15;;;;;;;2.30;1.77;;;;;;;6.43;100.00;94246.78;5034784;28;21245;-71
2023/11/04 02:18:42;;;;;;;2.73;1.77;;;;;;;6.44;100.00;94243.16;5035938;28;20606;-71
2023/11/04 02:21:09;;;;;;;5.47;1.90;;;;;;;6.53;100.00;94241.97;5036293;28;20197;-71
2023/11/04 02:23:36;;;;;;;2.43;1.70;;;;;;;6.45;100.00;94241.34;5035526;28;20209;-71
2023/11/04 02:26:03;;;;;;;4.67;2.00;;;;;;;6.62;100.00;94240.75;5036126;28;20224;-71
2023/11/04 02:28:29;;;;;;;3.13;1.57;;;;;;;6.69;100.00;94239.75;5035408;28;20219;-71
2023/11/04 02:30:56;;;;;;;6.17;1.90;;;;;;;6.77;100.00;94243.97;5035957;28;20227;-71
2023/11/04 02:33:22;;;;;;;4.60;1.90;;;;;;;6.69;100.00;94246.78;5035392;28;20205;-71
2023/11/04 02:35:50;;;;;;;3.70;2.10;;;;;;;6.70;100.00;94243.16;5035605;28;20753;-71
2023/11/04 02:38:18;;;;;;;3.87;1.90;;;;;;;6.84;100.00;94247.41;5035922;28;20197;-71
2023/11/04 02:40:45;;;;;;;2.23;1.50;;;;;;;6.69;100.00;94237.16;5035478;28;20597;-71
2023/11/04 02:43:11;;;;;;;3.20;1.93;;;;;;;6.70;100.00;94241.34;5035141;28;20208;-72
2023/11/04 02:45:38;;;;;;;3.33;1.80;;;;;;;6.46;100.00;94237.72;5035743;28;20231;-71
2023/11/04 02:48:05;;;;;;;2.27;1.77;;;;;;;6.51;100.00;94240.56;5035677;28;20233;-72
2023/11/04 02:50:33;;;;;;;1.73;1.50;;;;;;;6.50;100.00;94241.56;5035428;28;20577;-72
2023/11/04 02:52:59;;;;;;;2.53;1.43;;;;;;;6.36;100.00;94232.88;5035315;28;20212;-71
2023/11/04 02:55:27;;;;;;;2.50;1.50;;;;;;;6.51;100.00;94236.13;5035131;28;20228;-71
2023/11/04 02:57:54;;;;;;;2.37;1.37;;;;;;;6.36;100.00;94239.94;5035318;28;20261;-71
2023/11/04 03:00:20;;;;;;;2.20;1.50;;;;;;;6.35;100.00;94233.91;5035417;28;20246;-71
2023/11/04 03:02:47;;;;;;;2.50;1.90;;;;;;;6.32;100.00;94231.66;5035295;28;20575;-71
2023/11/04 03:05:15;;;;;;;2.43;1.50;;;;;;;6.24;100.00;94231.88;5034711;28;20982;-71
2023/11/04 03:07:42;;;;;;;4.27;1.70;;;;;;;6.19;100.00;94226.44;5036036;28;20201;-71
2023/11/04 03:10:09;;;;;;;3.30;2.07;;;;;;;6.26;100.00;94224.66;5035011;28;20603;-71
2023/11/04 03:12:37;;;;;;;3.10;1.57;;;;;;;6.34;100.00;94224.44;5034637;28;20702;-71
2023/11/04 03:15:05;;;;;;;2.77;1.70;;;;;;;6.26;100.00;94224.66;5035161;28;20205;-71
2023/11/04 03:17:32;;;;;;;2.97;1.50;;;;;;;6.09;100.00;94223.38;5035688;28;20241;-71
2023/11/04 03:19:59;;;;;;;2.90;1.40;;;;;;;6.10;100.00;94222.38;5034226;28;20255;-71
2023/11/04 03:22:25;;;;;;;2.40;1.70;;;;;;;6.05;100.00;94230.00;5035053;28;20205;-71
2023/11/04 03:24:53;;;;;;;3.10;1.80;;;;;;;6.12;100.00;94225.63;5035098;28;20209;-71
2023/11/04 03:27:19;;;;;;;3.97;1.60;;;;;;;6.04;100.00;94224.19;5035347;28;20738;-71
2023/11/04 03:29:47;;;;;;;2.30;1.60;;;;;;;6.15;100.00;94230.44;5039171;28;20211;-71
2023/11/04 03:32:14;;;;;;;3.07;1.87;;;;;;;6.03;100.00;94228.59;5037830;28;20681;-71
2023/11/04 03:34:41;;;;;;;2.93;1.67;;;;;;;6.06;100.00;94223.78;5038937;28;20217;-71
2023/11/04 03:37:07;;;;;;;2.30;1.60;;;;;;;6.02;100.00;94234.84;5038445;28;20221;-71
2023/11/04 03:39:35;;;;;;;3.73;1.90;;;;;;;5.97;100.00;94231.22;5039515;28;20232;-71
2023/11/04 03:42:01;;;;;;;3.27;1.50;;;;;;;5.99;100.00;94232.63;5038166;28;20204;-71
2023/11/04 03:44:28;;;;;;;3.23;1.77;;;;;;;5.90;100.00;94233.81;5038832;28;20212;-71
2023/11/04 03:46:56;;;;;;;1.83;1.23;;;;;;;6.08;100.00;94236.66;5039164;28;20236;-71
2023/11/04 03:49:22;;;;;;;2.80;1.90;;;;;;;5.84;100.00;94234.63;5038392;28;20243;-71
2023/11/04 03:51:49;;;;;;;2.70;1.80;;;;;;;5.86;100.00;94229.97;5037799;28;20326;-71
2023/11/04 03:54:15;;;;;;;2.03;1.53;;;;;;;5.84;100.00;94228.56;5038745;28;20201;-71
2023/11/04 03:56:42;;;;;;;2.73;1.80;;;;;;;5.66;100.00;94228.28;5038467;28;20343;-71
2023/11/04 03:59:08;;;;;;;5.63;2.27;;;;;;;5.64;100.00;94227.69;5038479;28;21317;-71
2023/11/04 04:01:39;;;;;;;4.23;2.07;;;;;;;5.89;100.00;94237.41;5038261;28;20216;-72
2023/11/04 04:04:07;;;;;;;2.73;1.80;;;;;;;5.82;100.00;94231.38;5038536;28;20213;-72
2023/11/04 04:06:34;;;;;;;2.70;1.80;;;;;;;5.73;100.00;94231.72;5038113;28;20228;-72
2023/11/04 04:09:01;;;;;;;2.33;1.63;;;;;;;5.70;100.00;94232.09;5038391;28;20209;-72
2023/11/04 04:11:28;;;;;;;3.53;2.00;;;;;;;5.71;100.00;94223.28;5038041;28;20201;-72
2023/11/04 04:13:54;;;;;;;3.37;1.80;;;;;;;5.68;100.00;94227.06;5037821;28;20209;-72
2023/11/04 04:16:23;;;;;;;2.23;1.67;;;;;;;5.66;100.00;94220.44;5037801;28;20267;-72
2023/11/04 04:18:49;;;;;;;2.57;1.50;;;;;;;5.67;100.00;94212.41;5038531;28;20214;-72
2023/11/04 04:21:17;;;;;;;3.37;2.00;;;;;;;5.78;100.00;94208.44;5038253;28;20225;-72
2023/11/04 04:23:44;;;;;;;6.13;2.23;;;;;;;5.60;100.00;94208.97;5037664;28;20239;-72
2023/11/04 04:26:17;;;;;;;3.80;2.10;;;;;;;5.46;100.00;94199.47;5038161;28;20225;-73
2023/11/04 04:28:43;;;;;;;2.73;1.80;;;;;;;5.44;100.00;94195.44;5038774;28;20209;-72
2023/11/04 04:31:10;;;;;;;2.77;1.80;;;;;;;5.44;100.00;94198.84;5038463;28;20572;-72
2023/11/04 04:33:36;;;;;;;2.73;1.40;;;;;;;5.36;100.00;94200.03;5037697;28;20212;-72
2023/11/04 04:36:04;;;;;;;3.27;1.70;;;;;;;5.35;100.00;94195.81;5037800;28;20235;-72
2023/11/04 04:38:33;;;;;;;2.33;1.70;;;;;;;5.35;100.00;94190.59;5037055;28;20292;-72
2023/11/04 04:41:00;;;;;;;2.00;1.27;;;;;;;5.22;100.00;94188.72;5037328;28;20221;-72
2023/11/04 04:43:27;;;;;;;2.20;1.30;;;;;;;5.27;100.00;94181.13;5037518;28;20209;-72
2023/11/04 04:45:53;;;;;;;3.63;2.33;;;;;;;5.31;100.00;94184.13;5037632;28;20220;-72
2023/11/04 04:48:20;;;;;;;2.80;1.53;;;;;;;5.20;100.00;94188.09;5037366;28;20197;-72
2023/11/04 04:50:46;;;;;;;1.60;1.27;;;;;;;5.20;100.00;94171.66;5038005;28;20580;-72
2023/11/04 04:53:14;;;;;;;2.50;1.67;;;;;;;5.16;100.00;94173.03;5036635;28;20207;-72
2023/11/04 04:55:42;;;;;;;2.20;1.73;;;;;;;5.38;100.00;94161.47;5037514;28;20286;-72
2023/11/04 04:58:09;;;;;;;2.83;1.70;;;;;;;5.16;100.00;94166.00;5037994;28;20201;-72
2023/11/04 05:00:36;;;;;;;2.23;1.40;;;;;;;5.18;100.00;94165.81;5037684;28;20229;-72
2023/11/04 05:03:03;;;;;;;3.40;1.80;;;;;;;5.13;100.00;94155.97;5036476;28;20211;-72
2023/11/04 05:05:29;;;;;;;3.23;2.03;;;;;;;5.13;100.00;94161.19;5037296;28;20710;-72
2023/11/04 05:07:56;;;;;;;3.77;2.20;;;;;;;5.24;100.00;94163.22;5037723;28;20204;-72
2023/11/04 05:10:22;;;;;;;4.47;2.20;;;;;;;5.21;100.00;94147.97;5036670;28;20586;-72
2023/11/04 05:12:50;;;;;;;3.57;2.37;;;;;;;5.38;100.00;94146.59;5037348;28;20589;-72
2023/11/04 05:15:17;;;;;;;3.73;2.20;;;;;;;5.34;100.00;94153.22;5037100;28;20220;-72
2023/11/04 05:17:45;;;;;;;2.93;2.10;;;;;;;5.35;100.00;94143.59;5036557;28;20205;-73
2023/11/04 05:20:12;;;;;;;3.97;2.17;;;;;;;5.34;100.00;94134.94;5036905;28;20226;-72
2023/11/04 05:22:39;;;;;;;3.80;2.07;;;;;;;5.38;100.00;94133.53;5036728;28;20231;-72
2023/11/04 05:25:07;;;;;;;2.00;1.50;;;;;;;5.56;100.00;94125.97;5037396;28;20209;-72
2023/11/04 05:27:34;;;;;;;12.53;2.13;;;;;;;5.51;100.00;94130.97;5036999;28;20207;-72
2023/11/04 05:30:02;;;;;;;3.30;1.77;;;;;;;5.65;100.00;94130.00;5037192;28;20666;-72
2023/11/04 05:32:28;;;;;;;2.50;1.93;;;;;;;5.56;100.00;94126.78;5035540;28;20731;-72
2023/11/04 05:34:55;;;;;;;3.33;1.90;;;;;;;5.65;100.00;94130.00;5036770;28;20223;-72
2023/11/04 05:37:21;;;;;;;4.50;2.03;;;;;;;5.78;100.00;94124.81;5037026;28;20679;-72
2023/11/04 05:39:48;;;;;;;2.00;1.50;;;;;;;5.80;100.00;94122.84;5036866;28;20243;-72
2023/11/04 05:42:14;;;;;;;3.63;1.97;;;;;;;5.78;100.00;94124.81;5036135;28;20676;-72
2023/11/04 05:44:41;;;;;;;2.00;1.43;;;;;;;5.81;100.00;94119.22;5036923;28;20212;-72
2023/11/04 05:47:08;;;;;;;4.50;1.60;;;;;;;5.93;100.00;94115.00;5036820;28;20234;-72
2023/11/04 05:49:36;;;;;;;1.60;1.07;;;;;;;5.79;100.00;94116.00;5035792;28;20208;-72
2023/11/04 05:52:03;;;;;;;1.50;1.20;;;;;;;5.91;100.00;94103.97;5036529;28;20303;-72
2023/11/04 05:54:29;;;;;;;2.20;1.50;;;;;;;5.98;100.00;94100.31;5036795;28;20563;-71
2023/11/04 05:56:56;;;;;;;2.77;1.60;;;;;;;5.98;100.00;94100.31;5036333;28;21147;-71
2023/11/04 05:59:22;;;;;;;9.10;1.70;;;;;;;6.01;100.00;94094.72;5035961;28;20291;-71
2023/11/04 06:01:49;;;;;;;3.90;2.00;;;;;;;5.90;100.00;94092.69;5036588;28;20607;-71
2023/11/04 06:04:17;;;;;;;2.37;1.53;;;;;;;6.16;100.00;94080.41;5035975;28;20212;-71
2023/11/04 06:06:43;;;;;;;2.13;1.60;;;;;;;6.00;100.00;94081.84;5036787;28;20225;-72
2023/11/04 06:09:11;;;;;;;2.33;1.67;;;;;;;6.04;100.00;94079.41;5038072;28;20205;-71
2023/11/04 06:11:37;;;;;;;3.13;1.70;;;;;;;6.12;100.00;94087.06;5035789;28;20207;-72
2023/11/04 06:14:04;;;;;;;3.33;1.90;;;;;;;6.16;100.00;94076.97;5035640;28;20216;-71
2023/11/04 06:16:33;;;;;;;3.07;1.83;;;;;;;6.35;100.00;94070.94;5036319;28;20786;-71
2023/11/04 06:19:00;;;;;;;5.13;2.43;;;;;;;6.21;100.00;94071.97;5036736;28;20560;-71
2023/11/04 06:21:28;;;;;;;4.03;2.07;;;;;;;6.30;100.00;94068.94;5035731;28;20229;-71
2023/11/04 06:23:54;;;;;;;2.57;1.80;;;;;;;6.31;100.00;94065.34;5037180;28;20305;-73
2023/11/04 06:26:22;;;;;;;3.00;1.73;;;;;;;6.28;100.00;94068.34;5037405;28;20217;-73
2023/11/04 06:28:49;;;;;;;2.87;1.77;;;;;;;6.25;100.00;94070.53;5039108;28;20205;-71
2023/11/04 06:31:16;;;;;;;5.83;2.10;;;;;;;6.29;100.00;94064.72;5038758;28;20224;-71
2023/11/04 06:33:43;;;;;;;9.73;3.57;;;;;;;6.22;100.00;94063.94;5038813;28;20209;-71
2023/11/04 06:36:10;;;;;;;12.90;4.63;;;;;;;6.29;100.00;94062.09;5038568;28;20233;-71
2023/11/04 06:38:38;;;;;;;12.20;3.60;;;;;;;6.45;100.00;94056.41;5038860;28;20209;-71
2023/11/04 06:41:10;;;;;;;9.13;4.13;;;;;;;6.43;100.00;94050.63;5038232;28;20275;-71
2023/11/04 06:43:38;;;;;;;5.80;2.37;;;;;;;6.34;100.00;94057.06;5039170;28;20205;-71
2023/11/04 06:46:06;;;;;;;2.57;1.60;;;;;;;6.40;100.00;94058.88;5039273;28;20220;-71
2023/11/04 06:48:33;;;;;;;1.90;1.40;;;;;;;6.39;100.00;94053.81;5038794;28;20201;-71
2023/11/04 06:50:59;;;;;;;3.90;1.30;;;;;;;6.46;100.00;94050.19;5038873;28;20212;-71
2023/11/04 06:53:27;;;;;;;2.20;1.33;;;;;;;6.45;100.00;94045.16;5039155;28;20325;-71
2023/11/04 06:55:56;;;;;;;1.37;1.10;;;;;;;6.66;100.00;94043.91;5038900;28;20316;-71
2023/11/04 06:58:22;;;;;;;3.43;1.50;;;;;;;6.75;100.00;94044.47;5038140;28;20208;-71
2023/11/04 07:00:50;;;;;;;2.83;1.80;;;;;;;6.74;100.00;94041.03;5038678;28;20229;-71
2023/11/04 07:03:16;;;;;;;2.90;1.47;;;;;;;6.89;100.00;94038.19;5037471;28;20206;-71
2023/11/04 07:05:44;;;;;;;2.40;1.30;;;;;;;6.96;100.00;94028.47;5039374;28;20595;-71
2023/11/04 07:08:11;;;;;;;2.17;1.50;;;;;;;7.03;100.00;94027.44;5038177;28;20216;-72
2023/11/04 07:10:38;;;;;;;1.67;1.50;;;;;;;7.08;100.00;94024.22;5038904;28;20728;-71
2023/11/04 07:13:07;;;;;;;2.13;1.27;;;;;;;7.21;100.00;94030.16;5036748;28;20699;-71
2023/11/04 07:15:37;;;;;;;1.50;1.30;;;;;;;7.13;100.00;94012.09;5037137;28;20304;-71
2023/11/04 07:18:04;;;;;;;3.43;1.60;;;;;;;7.10;100.00;94014.31;5038746;28;20227;-71
2023/11/04 07:20:31;;;;;;;1.97;1.07;;;;;;;7.25;100.00;94028.72;5038973;28;20681;-71
2023/11/04 07:22:57;;;;;;;1.33;0.97;;;;;;;7.30;100.00;94021.84;5038576;28;20250;-71
2023/11/04 07:25:24;;;;;;;0.90;0.70;;;;;;;7.30;100.00;94016.59;5039576;28;20228;-71
2023/11/04 07:27:51;;;;;;;1.73;1.17;;;;;;;7.22;100.00;94016.06;5040387;28;20220;-71
2023/11/04 07:30:19;;;;;;;1.73;1.33;;;;;;;7.35;100.00;94021.22;5038872;28;20200;-71
2023/11/04 07:32:46;;;;;;;3.43;1.17;;;;;;;7.24;100.00;94016.66;5040456;28;20208;-71
2023/11/04 07:35:12;;;;;;;2.17;1.20;;;;;;;7.21;100.00;94001.38;5041396;28;20747;-72
2023/11/04 07:37:39;;;;;;;1.37;1.00;;;;;;;7.42;100.00;94012.31;5039476;28;20551;-71
2023/11/04 07:40:07;;;;;;;1.27;1.00;;;;;;;7.66;100.00;94008.94;5039474;28;20209;-71
2023/11/04 07:42:34;;;;;;;2.17;1.17;;;;;;;7.43;100.00;94007.88;5039999;28;20201;-71
2023/11/04 07:45:00;;;;;;;2.10;1.17;;;;;;;7.57;100.00;94012.00;5040038;28;20597;-72
2023/11/04 07:47:29;;;;;;;1.67;1.13;;;;;;;7.76;100.00;94011.84;5039649;28;20296;-71
2023/11/04 07:49:55;;;;;;;2.10;1.30;;;;;;;7.61;100.00;94003.53;5037076;28;20242;-71
2023/11/04 07:52:22;;;;;;;3.03;1.60;;;;;;;7.75;100.00;93991.94;5034721;28;20208;-72
2023/11/04 07:54:48;;;;;;;1.30;1.17;;;;;;;7.77;100.00;93997.75;5035420;28;20198;-71
2023/11/04 07:57:15;;;;;;;1.60;1.20;;;;;;;7.96;100.00;93986.28;5034121;28;20204;-71
2023/11/04 07:59:42;;;;;;;2.20;1.30;;;;;;;8.10;100.00;93977.28;5034980;28;20205;-71
2023/11/04 08:02:08;;;;;;;2.80;1.20;;;;;;;8.02;100.00;93982.81;5034272;28;20344;-71
2023/11/04 08:04:38;;;;;;;2.00;1.50;;;;;;;8.37;100.00;93989.16;5034386;28;20205;-71
2023/11/04 08:07:05;;;;;;;3.23;1.13;;;;;;;8.38;100.00;93985.50;5034752;28;20754;-72
2023/11/04 08:09:32;;;;;;;2.00;0.83;;;;;;;8.52;100.00;93985.94;5034385;28;20746;-72
2023/11/04 08:11:58;;;;;;;1.13;0.90;;;;;;;8.41;100.00;93977.19;5033703;28;20201;-71
2023/11/04 08:14:25;;;;;;;1.50;0.87;;;;;;;8.61;100.00;93960.22;5036187;28;20569;-71
2023/11/04 08:16:51;;;;;;;0.90;0.80;;;;;;;8.76;100.00;93969.31;5038400;28;20247;-72
2023/11/04 08:19:17;;;;;;;2.80;1.53;;;;;;;8.76;100.00;93953.56;5037888;28;20209;-72
2023/11/04 08:21:45;;;;;;;1.57;1.27;;;;;;;8.93;100.00;93949.28;5038113;28;20563;-71
2023/11/04 08:24:12;;;;;;;1.30;0.90;;;;;;;9.01;100.00;93950.81;5037842;28;20212;-71
2023/11/04 08:26:39;;;;;;;1.83;1.20;;;;;;;9.10;100.00;93947.66;5038061;28;21037;-71
2023/11/04 08:29:06;;;;;;;1.67;1.13;;;;;;;9.11;100.00;93936.13;5037734;28;20610;-71
2023/11/04 08:31:33;;;;;;;3.00;1.00;;;;;;;9.23;100.00;93940.38;5037795;28;20198;-72
2023/11/04 08:33:59;;;;;;;2.47;1.47;;;;;;;9.15;100.00;93937.28;5037388;28;20630;-71
2023/11/04 08:36:25;;;;;;;2.20;1.00;;;;;;;9.18;100.00;93931.59;5037644;28;20236;-72
2023/11/04 08:38:53;;;;;;;1.33;0.70;;;;;;;9.55;100.00;93925.16;5037575;28;20731;-71
2023/11/04 08:41:20;;;;;;;3.87;0.93;;;;;;;9.53;100.00;93924.59;5037732;28;20229;-71
2023/11/04 08:43:47;;;;;;;2.63;1.00;;;;;;;9.67;100.00;93926.75;5037321;28;20201;-71
2023/11/04 08:46:18;;;;;;;4.10;1.00;;;;;;;9.60;100.00;93925.25;5037781;28;20232;-72
2023/11/04 08:48:44;;;;;;;2.10;1.10;;;;;;;9.72;100.00;93914.56;5037014;28;20201;-72
2023/11/04 08:51:11;;;;;;;4.00;1.00;;;;;;;9.87;100.00;93917.53;5037795;28;20201;-71
2023/11/04 08:53:37;;;;;;;1.13;0.87;;;;;;;9.63;100.00;93914.31;5037612;28;20210;-72
2023/11/04 08:56:07;;;;;;;2.03;0.90;;;;;;;10.14;100.00;93908.16;5037299;28;20623;-72
2023/11/04 08:58:34;;;;;;;1.90;0.60;;;;;;;10.15;100.00;93903.72;5037734;28;21129;-72
2023/11/04 09:01:00;;;;;;;1.00;0.60;;;;;;;10.14;100.00;93907.38;5037405;28;20329;-72
2023/11/04 09:03:27;;;;;;;2.23;1.13;;;;;;;10.26;100.00;93890.56;5035902;28;20209;-72
2023/11/04 09:05:54;;;;;;;1.97;0.80;;;;;;;10.07;100.00;93886.44;5036423;28;20599;-72
2023/11/04 09:08:21;;;;;;;1.03;0.70;;;;;;;10.33;100.00;93884.13;5036801;28;20197;-72
2023/11/04 09:10:48;;;;;;;1.40;0.90;;;;;;;10.51;100.00;93877.88;5036902;28;20279;-72
2023/11/04 09:13:15;;;;;;;1.13;0.77;;;;;;;10.66;100.00;93876.34;5036568;28;20821;-71
2023/11/04 09:15:42;;;;;;;0.83;0.70;;;;;;;10.73;100.00;93865.69;5037525;28;20228;-72
2023/11/04 09:18:08;;;;;;;0.73;0.63;;;;;;;10.70;100.00;93863.53;5037409;28;20671;-71
2023/11/04 09:20:35;;;;;;;0.50;0.40;;;;;;;11.16;100.00;93867.56;5037225;28;20767;-72
2023/11/04 09:23:01;;;;;;;1.73;0.63;;;;;;;11.05;100.00;93871.03;5036789;28;20197;-72
2023/11/04 09:25:28;;;;;;;0.67;0.60;;;;;;;11.26;100.00;93867.72;5036005;28;20217;-72
2023/11/04 09:27:54;;;;;;;0.40;0.40;;;;;;;11.14;100.00;93863.56;5038531;28;20776;-72
2023/11/04 09:30:22;;;;;;;0.50;0.50;;;;;;;11.49;100.00;93867.56;5036969;28;20205;-72
2023/11/04 09:32:49;;;;;;;0.60;0.60;;;;;;;11.29;100.00;93866.44;5036137;28;20197;-72
2023/11/04 09:35:16;;;;;;;0.67;0.67;;;;;;;11.00;100.00;93873.59;5036540;28;21181;-72
2023/11/04 09:37:44;;;;;;;0.50;0.50;;;;;;;11.28;100.00;93862.22;5036909;28;20798;-72
2023/11/04 09:40:12;;;;;;;0.40;0.40;;;;;;;11.38;100.00;93857.91;5035483;28;20877;-72
2023/11/04 09:42:39;;;;;;;0.70;0.47;;;;;;;11.39;100.00;93853.44;5034941;28;20298;-72
2023/11/04 09:45:07;;;;;;;0.40;0.40;;;;;;;11.77;97.50;93835.88;5036786;28;20207;-72
2023/11/04 09:47:35;;;;;;;0.40;0.40;;;;;;;11.72;100.00;93844.53;5036264;28;20193;-72
2023/11/04 09:50:02;;;;;;;1.93;0.40;;;;;;;11.73;97.49;93832.91;5036852;28;20201;-71
2023/11/04 09:52:29;;;;;;;0.50;0.50;;;;;;;12.17;99.30;93824.03;5033897;28;20201;-72
2023/11/04 09:54:57;;;;;;;0.70;0.50;;;;;;;12.25;100.00;93832.31;5035759;28;20206;-72
2023/11/04 09:57:24;;;;;;;3.23;1.10;;;;;;;12.11;100.00;93824.22;5035620;28;20212;-72
2023/11/04 09:59:51;;;;;;;3.03;1.30;;;;;;;12.09;97.62;93815.75;5036198;28;20207;-72
2023/11/04 10:02:18;;;;;;;9.90;2.83;;;;;;;11.85;92.68;93807.25;5034689;28;20240;-72
2023/11/04 10:04:45;;;;;;;5.30;1.73;;;;;;;12.14;96.59;93807.91;5035770;28;21028;-72
2023/11/04 10:07:12;;;;;;;1.03;0.77;;;;;;;12.03;94.84;93800.88;5034192;28;20217;-72
2023/11/04 10:09:38;;;;;;;4.47;1.27;;;;;;;12.27;90.32;93803.03;5035924;28;20209;-72
2023/11/04 10:12:05;;;;;;;0.80;0.60;;;;;;;12.35;89.76;93790.22;5033005;28;20682;-71
2023/11/04 10:14:32;;;;;;;0.60;0.57;;;;;;;12.50;90.28;93784.28;5035027;28;20200;-72
2023/11/04 10:16:59;;;;;;;1.07;0.60;;;;;;;12.57;87.31;93788.34;5034649;28;20271;-72
2023/11/04 10:19:25;;;;;;;0.53;0.40;;;;;;;12.71;91.52;93784.28;5035403;28;20213;-72
2023/11/04 10:21:53;;;;;;;1.37;0.40;;;;;;;12.76;89.46;93768.47;5035462;28;20221;-72
2023/11/04 10:24:21;;;;;;;0.47;0.47;;;;;;;12.63;91.53;93763.59;5035020;28;20201;-72
2023/11/04 10:26:48;;;;;;;0.43;0.43;;;;;;;12.62;89.86;93756.69;5036482;28;20237;-72
2023/11/04 10:29:14;;;;;;;0.40;0.30;;;;;;;12.57;89.39;93751.38;5035284;28;21036;-72
2023/11/04 10:31:42;;;;;;;2.80;0.43;;;;;;;12.62;88.98;93740.06;5036119;28;20236;-72
2023/11/04 10:34:10;;;;;;;0.40;0.40;;;;;;;12.54;88.21;93735.25;5034705;28;20587;-72
2023/11/04 10:36:38;;;;;;;0.77;0.50;;;;;;;12.70;87.90;93734.31;5035434;28;20217;-72
2023/11/04 10:39:11;;;;;;;0.27;0.23;;;;;;;12.67;86.68;93724.28;5036516;28;20205;-71
2023/11/04 10:41:43;;;;;;;0.43;0.43;;;;;;;12.94;86.86;93716.06;5036296;28;20770;-72
2023/11/04 10:44:15;;;;;;;0.20;0.20;;;;;;;12.97;84.76;93714.78;5034016;28;20216;-72
2023/11/04 10:46:49;;;;;;;0.60;0.40;;;;;;;12.88;86.43;93711.00;5033476;28;20730;-72
2023/11/04 10:49:23;;;;;;;1.03;0.47;;;;;;;12.79;83.79;93704.53;5034449;28;20190;-72
2023/11/04 10:51:58;;;;;;;0.57;0.40;;;;;;;12.81;83.61;93694.53;5034427;28;20204;-72
2023/11/04 10:54:32;;;;;;;0.40;0.40;;;;;;;12.85;79.91;93685.88;5034807;28;20693;-71
2023/11/04 10:57:08;;;;;;;0.30;0.30;;;;;;;12.93;80.83;93681.97;5033264;28;20216;-71
2023/11/04 10:59:39;;;;;;;0.40;0.40;;;;;;;13.00;82.24;93677.28;5032661;28;20204;-71
2023/11/04 11:02:07;;;;;;;0.40;0.40;;;;;;;13.00;81.01;93672.00;5033528;28;20217;-71
2023/11/04 11:04:35;;;;;;;0.57;0.50;;;;;;;13.07;81.43;93664.63;5034690;28;20208;-71
2023/11/04 11:07:02;;;;;;;0.40;0.40;;;;;;;12.95;83.77;93654.25;5034236;28;20224;-72
2023/11/04 11:09:30;;;;;;;0.40;0.40;;;;;;;13.04;84.55;93651.94;5034340;28;20223;-72
2023/11/04 11:12:03;;;;;;;0.80;0.40;;;;;;;12.98;87.52;93642.38;5034018;28;20250;-71
2023/11/04 11:14:31;;;;;;;0.60;0.60;;;;;;;12.96;84.19;93639.19;5033825;28;20297;-71
2023/11/04 11:17:01;;;;;;;1.57;0.67;;;;;;;12.99;84.71;93633.41;5034378;28;20230;-71
2023/11/04 11:19:28;;;;;;;1.03;0.60;;;;;;;12.84;81.78;93623.50;5034779;28;20205;-72
2023/11/04 11:21:55;;;;;;;0.60;0.50;;;;;;;12.89;79.65;93617.47;5034685;28;20597;-71
2023/11/04 11:24:22;;;;;;;1.93;0.90;;;;;;;12.74;81.47;93609.41;5033800;28;20201;-71
2023/11/04 11:26:51;;;;;;;0.87;0.57;;;;;;;12.80;82.16;93603.91;5035553;28;20217;-72
2023/11/04 11:29:22;;;;;;;0.93;0.70;;;;;;;12.75;81.29;93589.84;5034143;28;20229;-72
2023/11/04 11:31:50;;;;;;;1.93;0.60;;;;;;;12.73;82.58;93586.69;5035574;28;20239;-71